sensor_id;sensor_type;location;lat;lon;timestamp;P1;durP1;ratioP1;P2;durP2;ratioP2
62861;SDS011;48953;53.110;5.592;2022-12-11T00:02:04;80.97;;;18.45;;
62861;SDS011;48953;53.110;5.592;2022-12-11T00:04:30;71.95;;;16.58;;
62861;SDS011;48953;53.110;5.592;2022-12-11T00:06:56;79.72;;;17.85;;
62861;SDS011;48953;53.110;5.592;2022-12-11T00:09:22;74.95;;;19.13;;
62861;SDS011;48953;53.110;5.592;2022-12-11T00:11:48;84.75;;;17.85;;
62861;SDS011;48953;53.110;5.592;2022-12-11T00:14:15;66.68;;;17.27;;
62861;SDS011;48953;53.110;5.592;2022-12-11T00:16:41;73.82;;;17.58;;
62861;SDS011;48953;53.110;5.592;2022-12-11T00:19:07;74.28;;;17.55;;
62861;SDS011;48953;53.110;5.592;2022-12-11T00:21:33;67.07;;;16.23;;
62861;SDS011;48953;53.110;5.592;2022-12-11T00:23:59;78.57;;;18.35;;
62861;SDS011;48953;53.110;5.592;2022-12-11T00:26:25;62.42;;;17.80;;
62861;SDS011;48953;53.110;5.592;2022-12-11T00:28:52;80.03;;;19.33;;
62861;SDS011;48953;53.110;5.592;2022-12-11T00:31:19;74.82;;;18.10;;
62861;SDS011;48953;53.110;5.592;2022-12-11T00:33:45;75.38;;;18.92;;
62861;SDS011;48953;53.110;5.592;2022-12-11T00:36:16;62.87;;;16.60;;
62861;SDS011;48953;53.110;5.592;2022-12-11T00:38:43;62.50;;;17.45;;
62861;SDS011;48953;53.110;5.592;2022-12-11T00:41:09;62.70;;;16.48;;
62861;SDS011;48953;53.110;5.592;2022-12-11T00:43:35;73.47;;;17.67;;
62861;SDS011;48953;53.110;5.592;2022-12-11T00:46:01;68.40;;;17.75;;
62861;SDS011;48953;53.110;5.592;2022-12-11T00:48:28;60.17;;;16.50;;
62861;SDS011;48953;53.110;5.592;2022-12-11T00:50:54;72.25;;;17.15;;
62861;SDS011;48953;53.110;5.592;2022-12-11T00:53:20;63.17;;;17.65;;
62861;SDS011;48953;53.110;5.592;2022-12-11T00:55:46;70.18;;;17.60;;
62861;SDS011;48953;53.110;5.592;2022-12-11T00:58:13;64.60;;;16.90;;
62861;SDS011;48953;53.110;5.592;2022-12-11T01:00:39;67.55;;;17.42;;
62861;SDS011;48953;53.110;5.592;2022-12-11T01:03:05;59.22;;;17.10;;
62861;SDS011;48953;53.110;5.592;2022-12-11T01:05:31;66.28;;;17.50;;
62861;SDS011;48953;53.110;5.592;2022-12-11T01:07:57;67.97;;;17.67;;
62861;SDS011;48953;53.110;5.592;2022-12-11T01:10:23;66.05;;;18.13;;
62861;SDS011;48953;53.110;5.592;2022-12-11T01:12:57;62.95;;;16.92;;
62861;SDS011;48953;53.110;5.592;2022-12-11T01:15:25;66.93;;;18.15;;
62861;SDS011;48953;53.110;5.592;2022-12-11T01:17:52;68.45;;;16.73;;
62861;SDS011;48953;53.110;5.592;2022-12-11T01:20:18;59.03;;;17.55;;
62861;SDS011;48953;53.110;5.592;2022-12-11T01:22:45;65.28;;;17.85;;
62861;SDS011;48953;53.110;5.592;2022-12-11T01:25:11;61.40;;;18.23;;
62861;SDS011;48953;53.110;5.592;2022-12-11T01:27:37;58.30;;;18.40;;
62861;SDS011;48953;53.110;5.592;2022-12-11T01:30:04;72.03;;;18.52;;
62861;SDS011;48953;53.110;5.592;2022-12-11T01:32:31;59.53;;;18.58;;
62861;SDS011;48953;53.110;5.592;2022-12-11T01:34:57;67.85;;;18.38;;
62861;SDS011;48953;53.110;5.592;2022-12-11T01:37:23;54.03;;;16.65;;
62861;SDS011;48953;53.110;5.592;2022-12-11T01:39:49;60.78;;;18.58;;
62861;SDS011;48953;53.110;5.592;2022-12-11T01:42:18;63.28;;;18.80;;
62861;SDS011;48953;53.110;5.592;2022-12-11T01:47:10;61.53;;;18.00;;
62861;SDS011;48953;53.110;5.592;2022-12-11T01:49:37;61.15;;;17.42;;
62861;SDS011;48953;53.110;5.592;2022-12-11T01:52:08;58.15;;;18.17;;
62861;SDS011;48953;53.110;5.592;2022-12-11T01:54:36;64.22;;;19.02;;
62861;SDS011;48953;53.110;5.592;2022-12-11T01:57:05;59.00;;;18.10;;
62861;SDS011;48953;53.110;5.592;2022-12-11T02:02:13;62.30;;;17.65;;
62861;SDS011;48953;53.110;5.592;2022-12-11T02:04:39;58.08;;;16.00;;
62861;SDS011;48953;53.110;5.592;2022-12-11T02:07:06;56.22;;;18.10;;
62861;SDS011;48953;53.110;5.592;2022-12-11T02:09:33;68.55;;;19.38;;
62861;SDS011;48953;53.110;5.592;2022-12-11T02:12:19;74.72;;;20.42;;
62861;SDS011;48953;53.110;5.592;2022-12-11T02:14:58;71.80;;;19.63;;
62861;SDS011;48953;53.110;5.592;2022-12-11T02:20:11;70.13;;;18.70;;
62861;SDS011;48953;53.110;5.592;2022-12-11T02:22:57;71.95;;;18.77;;
62861;SDS011;48953;53.110;5.592;2022-12-11T02:25:30;68.88;;;18.65;;
62861;SDS011;48953;53.110;5.592;2022-12-11T02:30:29;63.85;;;18.55;;
62861;SDS011;48953;53.110;5.592;2022-12-11T02:32:56;60.10;;;18.65;;
62861;SDS011;48953;53.110;5.592;2022-12-11T02:35:32;66.75;;;18.63;;
62861;SDS011;48953;53.110;5.592;2022-12-11T02:38:03;57.47;;;17.92;;
62861;SDS011;48953;53.110;5.592;2022-12-11T02:40:31;63.78;;;18.73;;
62861;SDS011;48953;53.110;5.592;2022-12-11T02:43:00;58.63;;;17.60;;
62861;SDS011;48953;53.110;5.592;2022-12-11T02:45:27;58.28;;;17.98;;
62861;SDS011;48953;53.110;5.592;2022-12-11T02:47:55;66.20;;;18.15;;
62861;SDS011;48953;53.110;5.592;2022-12-11T02:50:23;72.63;;;19.77;;
62861;SDS011;48953;53.110;5.592;2022-12-11T02:52:50;70.28;;;18.52;;
62861;SDS011;48953;53.110;5.592;2022-12-11T02:55:19;67.57;;;17.90;;
62861;SDS011;48953;53.110;5.592;2022-12-11T02:58:07;65.57;;;18.73;;
62861;SDS011;48953;53.110;5.592;2022-12-11T03:00:32;59.53;;;18.33;;
62861;SDS011;48953;53.110;5.592;2022-12-11T03:02:58;60.80;;;19.10;;
62861;SDS011;48953;53.110;5.592;2022-12-11T03:05:24;66.57;;;18.38;;
62861;SDS011;48953;53.110;5.592;2022-12-11T03:07:51;65.35;;;17.88;;
62861;SDS011;48953;53.110;5.592;2022-12-11T03:10:18;65.88;;;19.90;;
62861;SDS011;48953;53.110;5.592;2022-12-11T03:12:45;58.85;;;17.73;;
62861;SDS011;48953;53.110;5.592;2022-12-11T03:15:13;68.65;;;18.23;;
62861;SDS011;48953;53.110;5.592;2022-12-11T03:17:46;64.53;;;17.92;;
62861;SDS011;48953;53.110;5.592;2022-12-11T03:26:09;67.53;;;18.42;;
62861;SDS011;48953;53.110;5.592;2022-12-11T03:28:17;62.95;;;18.55;;
62861;SDS011;48953;53.110;5.592;2022-12-11T03:30:45;67.05;;;18.65;;
62861;SDS011;48953;53.110;5.592;2022-12-11T03:33:14;63.97;;;18.15;;
62861;SDS011;48953;53.110;5.592;2022-12-11T03:35:47;70.40;;;20.08;;
62861;SDS011;48953;53.110;5.592;2022-12-11T03:38:18;65.72;;;19.92;;
62861;SDS011;48953;53.110;5.592;2022-12-11T03:40:46;75.03;;;19.58;;
62861;SDS011;48953;53.110;5.592;2022-12-11T03:43:15;66.22;;;18.80;;
62861;SDS011;48953;53.110;5.592;2022-12-11T03:45:41;69.78;;;19.65;;
62861;SDS011;48953;53.110;5.592;2022-12-11T03:48:08;70.72;;;18.80;;
62861;SDS011;48953;53.110;5.592;2022-12-11T03:50:34;61.67;;;18.60;;
62861;SDS011;48953;53.110;5.592;2022-12-11T03:53:01;65.57;;;19.08;;
62861;SDS011;48953;53.110;5.592;2022-12-11T03:55:28;78.07;;;21.58;;
62861;SDS011;48953;53.110;5.592;2022-12-11T03:57:55;74.68;;;19.33;;
62861;SDS011;48953;53.110;5.592;2022-12-11T04:00:21;70.18;;;20.00;;
62861;SDS011;48953;53.110;5.592;2022-12-11T04:02:47;61.05;;;18.40;;
62861;SDS011;48953;53.110;5.592;2022-12-11T04:05:33;67.88;;;18.92;;
62861;SDS011;48953;53.110;5.592;2022-12-11T04:07:59;63.63;;;18.92;;
62861;SDS011;48953;53.110;5.592;2022-12-11T04:10:26;75.40;;;20.08;;
62861;SDS011;48953;53.110;5.592;2022-12-11T04:12:52;74.38;;;20.80;;
62861;SDS011;48953;53.110;5.592;2022-12-11T04:15:18;69.32;;;19.15;;
62861;SDS011;48953;53.110;5.592;2022-12-11T04:17:44;62.25;;;18.33;;
62861;SDS011;48953;53.110;5.592;2022-12-11T04:20:39;71.80;;;19.90;;
62861;SDS011;48953;53.110;5.592;2022-12-11T04:23:24;76.43;;;19.95;;
62861;SDS011;48953;53.110;5.592;2022-12-11T04:26:13;69.10;;;19.40;;
62861;SDS011;48953;53.110;5.592;2022-12-11T04:28:39;66.68;;;19.52;;
62861;SDS011;48953;53.110;5.592;2022-12-11T04:31:05;65.20;;;19.38;;
62861;SDS011;48953;53.110;5.592;2022-12-11T04:33:35;66.30;;;16.70;;
62861;SDS011;48953;53.110;5.592;2022-12-11T04:36:01;66.60;;;17.50;;
62861;SDS011;48953;53.110;5.592;2022-12-11T04:38:27;74.10;;;18.65;;
62861;SDS011;48953;53.110;5.592;2022-12-11T04:40:57;67.25;;;18.80;;
62861;SDS011;48953;53.110;5.592;2022-12-11T04:43:23;73.70;;;20.10;;
62861;SDS011;48953;53.110;5.592;2022-12-11T04:45:49;65.18;;;18.65;;
62861;SDS011;48953;53.110;5.592;2022-12-11T04:48:15;64.80;;;18.30;;
62861;SDS011;48953;53.110;5.592;2022-12-11T04:50:41;72.28;;;19.25;;
62861;SDS011;48953;53.110;5.592;2022-12-11T04:53:07;69.05;;;18.90;;
62861;SDS011;48953;53.110;5.592;2022-12-11T04:55:33;71.75;;;19.95;;
62861;SDS011;48953;53.110;5.592;2022-12-11T04:57:59;67.93;;;19.30;;
62861;SDS011;48953;53.110;5.592;2022-12-11T05:00:25;63.55;;;17.48;;
62861;SDS011;48953;53.110;5.592;2022-12-11T05:02:52;65.88;;;18.05;;
62861;SDS011;48953;53.110;5.592;2022-12-11T05:05:18;65.30;;;19.23;;
62861;SDS011;48953;53.110;5.592;2022-12-11T05:07:44;65.25;;;19.38;;
62861;SDS011;48953;53.110;5.592;2022-12-11T05:10:10;61.08;;;18.00;;
62861;SDS011;48953;53.110;5.592;2022-12-11T05:12:36;71.13;;;19.05;;
62861;SDS011;48953;53.110;5.592;2022-12-11T05:15:02;68.72;;;19.35;;
62861;SDS011;48953;53.110;5.592;2022-12-11T05:17:29;58.97;;;18.45;;
62861;SDS011;48953;53.110;5.592;2022-12-11T05:19:54;54.13;;;17.25;;
62861;SDS011;48953;53.110;5.592;2022-12-11T05:22:20;61.92;;;17.73;;
62861;SDS011;48953;53.110;5.592;2022-12-11T05:24:46;58.95;;;17.10;;
62861;SDS011;48953;53.110;5.592;2022-12-11T05:27:12;59.20;;;17.27;;
62861;SDS011;48953;53.110;5.592;2022-12-11T05:29:38;54.83;;;16.55;;
62861;SDS011;48953;53.110;5.592;2022-12-11T05:32:04;54.83;;;18.13;;
62861;SDS011;48953;53.110;5.592;2022-12-11T05:34:31;56.13;;;16.92;;
62861;SDS011;48953;53.110;5.592;2022-12-11T05:36:57;49.13;;;16.52;;
62861;SDS011;48953;53.110;5.592;2022-12-11T05:39:23;45.45;;;15.63;;
62861;SDS011;48953;53.110;5.592;2022-12-11T05:41:49;45.28;;;15.73;;
62861;SDS011;48953;53.110;5.592;2022-12-11T05:44:15;42.05;;;16.80;;
62861;SDS011;48953;53.110;5.592;2022-12-11T05:46:41;45.20;;;16.08;;
62861;SDS011;48953;53.110;5.592;2022-12-11T05:49:08;38.70;;;15.02;;
62861;SDS011;48953;53.110;5.592;2022-12-11T05:51:34;41.85;;;16.35;;
62861;SDS011;48953;53.110;5.592;2022-12-11T05:54:01;39.13;;;15.05;;
62861;SDS011;48953;53.110;5.592;2022-12-11T05:56:28;38.17;;;15.25;;
62861;SDS011;48953;53.110;5.592;2022-12-11T05:58:54;40.95;;;16.10;;
62861;SDS011;48953;53.110;5.592;2022-12-11T06:01:39;49.47;;;16.98;;
62861;SDS011;48953;53.110;5.592;2022-12-11T06:04:06;55.42;;;16.08;;
62861;SDS011;48953;53.110;5.592;2022-12-11T06:06:32;48.83;;;16.25;;
62861;SDS011;48953;53.110;5.592;2022-12-11T06:08:59;51.83;;;17.42;;
62861;SDS011;48953;53.110;5.592;2022-12-11T06:11:26;46.85;;;16.25;;
62861;SDS011;48953;53.110;5.592;2022-12-11T06:13:52;49.65;;;16.80;;
62861;SDS011;48953;53.110;5.592;2022-12-11T06:16:19;49.38;;;16.33;;
62861;SDS011;48953;53.110;5.592;2022-12-11T06:18:45;52.28;;;17.08;;
62861;SDS011;48953;53.110;5.592;2022-12-11T06:21:16;51.00;;;16.33;;
62861;SDS011;48953;53.110;5.592;2022-12-11T06:23:43;53.65;;;17.60;;
62861;SDS011;48953;53.110;5.592;2022-12-11T06:26:09;51.70;;;16.80;;
62861;SDS011;48953;53.110;5.592;2022-12-11T06:28:35;56.72;;;16.92;;
62861;SDS011;48953;53.110;5.592;2022-12-11T06:31:01;52.20;;;17.08;;
62861;SDS011;48953;53.110;5.592;2022-12-11T06:33:28;59.15;;;16.80;;
62861;SDS011;48953;53.110;5.592;2022-12-11T06:35:54;59.00;;;16.95;;
62861;SDS011;48953;53.110;5.592;2022-12-11T06:38:21;57.33;;;16.98;;
62861;SDS011;48953;53.110;5.592;2022-12-11T06:40:53;57.95;;;17.13;;
62861;SDS011;48953;53.110;5.592;2022-12-11T06:43:19;64.28;;;17.98;;
62861;SDS011;48953;53.110;5.592;2022-12-11T06:45:45;64.20;;;17.65;;
62861;SDS011;48953;53.110;5.592;2022-12-11T06:48:12;63.90;;;18.33;;
62861;SDS011;48953;53.110;5.592;2022-12-11T06:50:38;62.72;;;17.88;;
62861;SDS011;48953;53.110;5.592;2022-12-11T06:53:04;63.53;;;19.40;;
62861;SDS011;48953;53.110;5.592;2022-12-11T06:55:33;61.17;;;18.15;;
62861;SDS011;48953;53.110;5.592;2022-12-11T06:57:59;64.35;;;18.88;;
62861;SDS011;48953;53.110;5.592;2022-12-11T07:00:25;64.82;;;17.83;;
62861;SDS011;48953;53.110;5.592;2022-12-11T07:02:51;56.25;;;17.58;;
62861;SDS011;48953;53.110;5.592;2022-12-11T07:05:17;67.43;;;18.20;;
62861;SDS011;48953;53.110;5.592;2022-12-11T07:07:43;59.38;;;17.65;;
62861;SDS011;48953;53.110;5.592;2022-12-11T07:10:09;58.75;;;17.75;;
62861;SDS011;48953;53.110;5.592;2022-12-11T07:12:35;60.08;;;18.27;;
62861;SDS011;48953;53.110;5.592;2022-12-11T07:15:02;63.28;;;20.40;;
62861;SDS011;48953;53.110;5.592;2022-12-11T07:17:28;64.25;;;18.23;;
62861;SDS011;48953;53.110;5.592;2022-12-11T07:19:54;61.80;;;16.95;;
62861;SDS011;48953;53.110;5.592;2022-12-11T07:22:21;64.97;;;18.08;;
62861;SDS011;48953;53.110;5.592;2022-12-11T07:24:47;64.53;;;16.98;;
62861;SDS011;48953;53.110;5.592;2022-12-11T07:27:13;64.40;;;19.00;;
62861;SDS011;48953;53.110;5.592;2022-12-11T07:29:39;65.00;;;20.58;;
62861;SDS011;48953;53.110;5.592;2022-12-11T07:32:05;62.35;;;20.23;;
62861;SDS011;48953;53.110;5.592;2022-12-11T07:34:31;73.53;;;20.05;;
62861;SDS011;48953;53.110;5.592;2022-12-11T07:36:57;59.53;;;19.13;;
62861;SDS011;48953;53.110;5.592;2022-12-11T07:39:23;65.20;;;20.15;;
62861;SDS011;48953;53.110;5.592;2022-12-11T07:41:49;67.28;;;19.50;;
62861;SDS011;48953;53.110;5.592;2022-12-11T07:44:15;69.25;;;19.25;;
62861;SDS011;48953;53.110;5.592;2022-12-11T07:46:41;65.45;;;20.02;;
62861;SDS011;48953;53.110;5.592;2022-12-11T07:49:07;68.95;;;19.00;;
62861;SDS011;48953;53.110;5.592;2022-12-11T07:51:34;66.95;;;18.80;;
62861;SDS011;48953;53.110;5.592;2022-12-11T07:54:01;67.00;;;18.98;;
62861;SDS011;48953;53.110;5.592;2022-12-11T07:56:28;66.57;;;20.05;;
62861;SDS011;48953;53.110;5.592;2022-12-11T07:58:55;58.45;;;18.73;;
62861;SDS011;48953;53.110;5.592;2022-12-11T08:01:25;70.65;;;20.20;;
62861;SDS011;48953;53.110;5.592;2022-12-11T08:03:51;62.00;;;18.33;;
62861;SDS011;48953;53.110;5.592;2022-12-11T08:06:18;58.58;;;18.55;;
62861;SDS011;48953;53.110;5.592;2022-12-11T08:08:45;57.75;;;18.02;;
62861;SDS011;48953;53.110;5.592;2022-12-11T08:11:12;55.05;;;17.52;;
62861;SDS011;48953;53.110;5.592;2022-12-11T08:13:38;61.80;;;17.90;;
62861;SDS011;48953;53.110;5.592;2022-12-11T08:16:05;52.78;;;16.95;;
62861;SDS011;48953;53.110;5.592;2022-12-11T08:18:32;58.70;;;18.25;;
62861;SDS011;48953;53.110;5.592;2022-12-11T08:20:58;58.72;;;17.00;;
62861;SDS011;48953;53.110;5.592;2022-12-11T08:23:24;62.33;;;19.33;;
62861;SDS011;48953;53.110;5.592;2022-12-11T08:25:50;64.03;;;18.13;;
62861;SDS011;48953;53.110;5.592;2022-12-11T08:28:16;63.95;;;18.02;;
62861;SDS011;48953;53.110;5.592;2022-12-11T08:30:42;60.20;;;18.60;;
62861;SDS011;48953;53.110;5.592;2022-12-11T08:33:08;58.35;;;18.10;;
62861;SDS011;48953;53.110;5.592;2022-12-11T08:35:37;59.38;;;18.60;;
62861;SDS011;48953;53.110;5.592;2022-12-11T08:38:03;55.72;;;17.88;;
62861;SDS011;48953;53.110;5.592;2022-12-11T08:40:29;60.90;;;19.23;;
62861;SDS011;48953;53.110;5.592;2022-12-11T08:42:55;59.65;;;18.05;;
62861;SDS011;48953;53.110;5.592;2022-12-11T08:45:21;63.58;;;19.60;;
62861;SDS011;48953;53.110;5.592;2022-12-11T08:47:47;56.63;;;17.95;;
62861;SDS011;48953;53.110;5.592;2022-12-11T08:50:13;66.60;;;19.25;;
62861;SDS011;48953;53.110;5.592;2022-12-11T08:52:39;54.85;;;16.98;;
62861;SDS011;48953;53.110;5.592;2022-12-11T08:55:05;48.90;;;15.52;;
62861;SDS011;48953;53.110;5.592;2022-12-11T08:57:31;60.42;;;19.67;;
62861;SDS011;48953;53.110;5.592;2022-12-11T08:59:57;54.75;;;17.25;;
62861;SDS011;48953;53.110;5.592;2022-12-11T09:02:23;54.45;;;18.42;;
62861;SDS011;48953;53.110;5.592;2022-12-11T09:04:49;52.10;;;17.77;;
62861;SDS011;48953;53.110;5.592;2022-12-11T09:07:15;52.13;;;16.75;;
62861;SDS011;48953;53.110;5.592;2022-12-11T09:09:41;44.95;;;17.13;;
62861;SDS011;48953;53.110;5.592;2022-12-11T09:12:07;50.83;;;17.88;;
62861;SDS011;48953;53.110;5.592;2022-12-11T09:14:33;55.38;;;18.77;;
62861;SDS011;48953;53.110;5.592;2022-12-11T09:16:59;53.63;;;17.05;;
62861;SDS011;48953;53.110;5.592;2022-12-11T09:19:25;53.42;;;16.52;;
62861;SDS011;48953;53.110;5.592;2022-12-11T09:21:51;51.20;;;17.58;;
62861;SDS011;48953;53.110;5.592;2022-12-11T09:24:17;49.55;;;17.33;;
62861;SDS011;48953;53.110;5.592;2022-12-11T09:26:43;51.63;;;15.48;;
62861;SDS011;48953;53.110;5.592;2022-12-11T09:29:11;44.42;;;16.00;;
62861;SDS011;48953;53.110;5.592;2022-12-11T09:31:37;49.08;;;17.23;;
62861;SDS011;48953;53.110;5.592;2022-12-11T09:34:05;47.58;;;16.48;;
62861;SDS011;48953;53.110;5.592;2022-12-11T09:36:31;46.85;;;15.82;;
62861;SDS011;48953;53.110;5.592;2022-12-11T09:39:02;48.25;;;17.13;;
62861;SDS011;48953;53.110;5.592;2022-12-11T09:41:34;48.53;;;16.77;;
62861;SDS011;48953;53.110;5.592;2022-12-11T09:46:32;44.88;;;15.23;;
62861;SDS011;48953;53.110;5.592;2022-12-11T09:48:59;51.50;;;17.40;;
62861;SDS011;48953;53.110;5.592;2022-12-11T09:51:27;46.80;;;16.08;;
62861;SDS011;48953;53.110;5.592;2022-12-11T09:53:55;45.00;;;16.13;;
62861;SDS011;48953;53.110;5.592;2022-12-11T09:56:35;42.55;;;15.98;;
62861;SDS011;48953;53.110;5.592;2022-12-11T10:04:33;42.85;;;15.35;;
62861;SDS011;48953;53.110;5.592;2022-12-11T10:07:15;49.17;;;17.38;;
62861;SDS011;48953;53.110;5.592;2022-12-11T10:17:38;47.42;;;18.17;;
62861;SDS011;48953;53.110;5.592;2022-12-11T10:22:34;48.13;;;17.70;;
62861;SDS011;48953;53.110;5.592;2022-12-11T10:25:01;46.08;;;17.08;;
62861;SDS011;48953;53.110;5.592;2022-12-11T10:27:30;50.22;;;18.23;;
62861;SDS011;48953;53.110;5.592;2022-12-11T10:30:03;44.72;;;17.55;;
62861;SDS011;48953;53.110;5.592;2022-12-11T10:35:08;49.10;;;16.60;;
62861;SDS011;48953;53.110;5.592;2022-12-11T10:37:38;46.65;;;17.35;;
62861;SDS011;48953;53.110;5.592;2022-12-11T10:40:04;45.28;;;18.95;;
62861;SDS011;48953;53.110;5.592;2022-12-11T10:42:31;48.33;;;17.10;;
62861;SDS011;48953;53.110;5.592;2022-12-11T10:44:58;46.22;;;17.65;;
62861;SDS011;48953;53.110;5.592;2022-12-11T10:47:24;50.80;;;17.83;;
62861;SDS011;48953;53.110;5.592;2022-12-11T10:49:54;48.60;;;17.48;;
62861;SDS011;48953;53.110;5.592;2022-12-11T10:52:23;49.50;;;16.63;;
62861;SDS011;48953;53.110;5.592;2022-12-11T10:55:03;42.80;;;17.15;;
62861;SDS011;48953;53.110;5.592;2022-12-11T10:57:31;43.30;;;16.98;;
62861;SDS011;48953;53.110;5.592;2022-12-11T10:59:58;46.33;;;18.27;;
62861;SDS011;48953;53.110;5.592;2022-12-11T11:04:51;44.63;;;17.67;;
62861;SDS011;48953;53.110;5.592;2022-12-11T11:07:19;45.97;;;17.65;;
62861;SDS011;48953;53.110;5.592;2022-12-11T11:09:46;44.92;;;17.02;;
62861;SDS011;48953;53.110;5.592;2022-12-11T11:17:41;45.47;;;17.48;;
62861;SDS011;48953;53.110;5.592;2022-12-11T11:20:12;42.88;;;16.65;;
62861;SDS011;48953;53.110;5.592;2022-12-11T11:22:40;40.13;;;17.20;;
62861;SDS011;48953;53.110;5.592;2022-12-11T11:25:14;38.00;;;16.02;;
62861;SDS011;48953;53.110;5.592;2022-12-11T11:27:51;42.67;;;17.33;;
62861;SDS011;48953;53.110;5.592;2022-12-11T11:30:23;35.03;;;14.55;;
62861;SDS011;48953;53.110;5.592;2022-12-11T11:32:50;37.92;;;16.15;;
62861;SDS011;48953;53.110;5.592;2022-12-11T11:35:18;35.85;;;15.93;;
62861;SDS011;48953;53.110;5.592;2022-12-11T11:37:45;40.00;;;16.55;;
62861;SDS011;48953;53.110;5.592;2022-12-11T11:40:14;34.88;;;15.38;;
62861;SDS011;48953;53.110;5.592;2022-12-11T11:45:27;37.10;;;15.85;;
62861;SDS011;48953;53.110;5.592;2022-12-11T11:48:15;36.63;;;15.52;;
62861;SDS011;48953;53.110;5.592;2022-12-11T11:50:45;38.00;;;15.70;;
62861;SDS011;48953;53.110;5.592;2022-12-11T11:53:30;37.97;;;15.45;;
62861;SDS011;48953;53.110;5.592;2022-12-11T11:58:55;39.15;;;16.23;;
62861;SDS011;48953;53.110;5.592;2022-12-11T12:01:23;35.90;;;15.38;;
62861;SDS011;48953;53.110;5.592;2022-12-11T12:03:49;36.05;;;16.17;;
62861;SDS011;48953;53.110;5.592;2022-12-11T12:08:51;38.05;;;15.60;;
62861;SDS011;48953;53.110;5.592;2022-12-11T12:14:13;36.40;;;15.73;;
62861;SDS011;48953;53.110;5.592;2022-12-11T12:21:52;35.67;;;16.17;;
62861;SDS011;48953;53.110;5.592;2022-12-11T12:27:36;34.03;;;14.38;;
62861;SDS011;48953;53.110;5.592;2022-12-11T12:44:53;31.20;;;14.18;;
62861;SDS011;48953;53.110;5.592;2022-12-11T12:47:21;30.98;;;13.05;;
62861;SDS011;48953;53.110;5.592;2022-12-11T12:49:48;29.88;;;13.70;;
62861;SDS011;48953;53.110;5.592;2022-12-11T12:52:22;33.38;;;13.65;;
62861;SDS011;48953;53.110;5.592;2022-12-11T12:54:51;31.10;;;13.10;;
62861;SDS011;48953;53.110;5.592;2022-12-11T12:57:37;31.35;;;14.02;;
62861;SDS011;48953;53.110;5.592;2022-12-11T13:00:05;29.67;;;12.93;;
62861;SDS011;48953;53.110;5.592;2022-12-11T13:02:32;28.60;;;12.60;;
62861;SDS011;48953;53.110;5.592;2022-12-11T13:04:59;32.40;;;14.18;;
62861;SDS011;48953;53.110;5.592;2022-12-11T13:07:28;33.35;;;13.52;;
62861;SDS011;48953;53.110;5.592;2022-12-11T13:09:59;34.72;;;14.77;;
62861;SDS011;48953;53.110;5.592;2022-12-11T13:12:42;34.20;;;15.10;;
62861;SDS011;48953;53.110;5.592;2022-12-11T13:18:30;33.53;;;13.93;;
62861;SDS011;48953;53.110;5.592;2022-12-11T13:20:57;34.78;;;14.50;;
62861;SDS011;48953;53.110;5.592;2022-12-11T13:23:28;33.25;;;14.45;;
62861;SDS011;48953;53.110;5.592;2022-12-11T13:25:55;34.08;;;15.20;;
62861;SDS011;48953;53.110;5.592;2022-12-11T13:31:02;31.00;;;14.80;;
62861;SDS011;48953;53.110;5.592;2022-12-11T13:33:29;40.28;;;15.68;;
62861;SDS011;48953;53.110;5.592;2022-12-11T13:36:15;36.95;;;15.20;;
62861;SDS011;48953;53.110;5.592;2022-12-11T13:38:47;37.60;;;15.63;;
62861;SDS011;48953;53.110;5.592;2022-12-11T13:41:14;33.28;;;14.43;;
62861;SDS011;48953;53.110;5.592;2022-12-11T13:43:40;33.15;;;14.07;;
62861;SDS011;48953;53.110;5.592;2022-12-11T13:46:08;33.17;;;12.93;;
62861;SDS011;48953;53.110;5.592;2022-12-11T13:48:39;30.88;;;14.35;;
62861;SDS011;48953;53.110;5.592;2022-12-11T13:51:17;32.85;;;14.13;;
62861;SDS011;48953;53.110;5.592;2022-12-11T13:53:43;33.53;;;14.52;;
62861;SDS011;48953;53.110;5.592;2022-12-11T13:56:15;31.75;;;13.43;;
62861;SDS011;48953;53.110;5.592;2022-12-11T13:58:42;28.17;;;13.38;;
62861;SDS011;48953;53.110;5.592;2022-12-11T14:01:09;32.03;;;13.05;;
62861;SDS011;48953;53.110;5.592;2022-12-11T14:03:39;28.98;;;13.07;;
62861;SDS011;48953;53.110;5.592;2022-12-11T14:06:08;32.15;;;14.30;;
62861;SDS011;48953;53.110;5.592;2022-12-11T14:08:35;32.08;;;14.00;;
62861;SDS011;48953;53.110;5.592;2022-12-11T14:11:02;33.33;;;13.43;;
62861;SDS011;48953;53.110;5.592;2022-12-11T14:13:33;32.42;;;13.90;;
62861;SDS011;48953;53.110;5.592;2022-12-11T14:16:00;32.50;;;14.00;;
62861;SDS011;48953;53.110;5.592;2022-12-11T14:18:27;40.05;;;15.48;;
62861;SDS011;48953;53.110;5.592;2022-12-11T14:20:57;34.40;;;14.82;;
62861;SDS011;48953;53.110;5.592;2022-12-11T14:23:27;32.40;;;13.45;;
62861;SDS011;48953;53.110;5.592;2022-12-11T14:25:55;34.42;;;14.40;;
62861;SDS011;48953;53.110;5.592;2022-12-11T14:28:21;37.00;;;14.45;;
62861;SDS011;48953;53.110;5.592;2022-12-11T14:30:51;27.60;;;13.30;;
62861;SDS011;48953;53.110;5.592;2022-12-11T14:33:19;30.48;;;13.70;;
62861;SDS011;48953;53.110;5.592;2022-12-11T14:35:46;33.38;;;14.48;;
62861;SDS011;48953;53.110;5.592;2022-12-11T14:38:18;32.08;;;13.88;;
62861;SDS011;48953;53.110;5.592;2022-12-11T14:40:46;32.88;;;13.57;;
62861;SDS011;48953;53.110;5.592;2022-12-11T14:43:14;36.95;;;14.65;;
62861;SDS011;48953;53.110;5.592;2022-12-11T14:45:43;35.83;;;14.57;;
62861;SDS011;48953;53.110;5.592;2022-12-11T14:48:13;35.35;;;13.82;;
62861;SDS011;48953;53.110;5.592;2022-12-11T14:50:43;32.67;;;15.50;;
62861;SDS011;48953;53.110;5.592;2022-12-11T14:53:16;29.88;;;13.45;;
62861;SDS011;48953;53.110;5.592;2022-12-11T14:55:44;35.40;;;14.77;;
62861;SDS011;48953;53.110;5.592;2022-12-11T14:58:30;31.45;;;13.75;;
62861;SDS011;48953;53.110;5.592;2022-12-11T15:01:05;33.70;;;14.88;;
62861;SDS011;48953;53.110;5.592;2022-12-11T15:03:36;34.30;;;13.85;;
62861;SDS011;48953;53.110;5.592;2022-12-11T15:08:32;29.95;;;13.40;;
62861;SDS011;48953;53.110;5.592;2022-12-11T15:13:57;31.05;;;14.10;;
62861;SDS011;48953;53.110;5.592;2022-12-11T15:18:53;36.47;;;14.50;;
62861;SDS011;48953;53.110;5.592;2022-12-11T15:21:27;39.45;;;14.90;;
62861;SDS011;48953;53.110;5.592;2022-12-11T15:23:54;34.53;;;14.88;;
62861;SDS011;48953;53.110;5.592;2022-12-11T15:26:31;31.23;;;12.73;;
62861;SDS011;48953;53.110;5.592;2022-12-11T15:28:58;35.03;;;13.55;;
62861;SDS011;48953;53.110;5.592;2022-12-11T15:31:28;32.80;;;13.30;;
62861;SDS011;48953;53.110;5.592;2022-12-11T15:33:54;35.15;;;14.57;;
62861;SDS011;48953;53.110;5.592;2022-12-11T15:36:30;35.17;;;13.98;;
62861;SDS011;48953;53.110;5.592;2022-12-11T15:38:58;32.63;;;13.75;;
62861;SDS011;48953;53.110;5.592;2022-12-11T15:41:25;34.03;;;14.68;;
62861;SDS011;48953;53.110;5.592;2022-12-11T15:43:51;36.55;;;15.55;;
62861;SDS011;48953;53.110;5.592;2022-12-11T15:46:18;37.80;;;15.05;;
62861;SDS011;48953;53.110;5.592;2022-12-11T15:48:44;31.92;;;13.20;;
62861;SDS011;48953;53.110;5.592;2022-12-11T15:51:10;38.53;;;15.27;;
62861;SDS011;48953;53.110;5.592;2022-12-11T15:53:36;39.00;;;15.48;;
62861;SDS011;48953;53.110;5.592;2022-12-11T15:56:02;38.88;;;15.77;;
62861;SDS011;48953;53.110;5.592;2022-12-11T15:58:28;37.17;;;15.77;;
62861;SDS011;48953;53.110;5.592;2022-12-11T16:00:54;39.40;;;15.18;;